createdAt,value
2023-02-22T00:00:40.606Z,77.72
2023-02-22T00:03:11.109Z,77.68
2023-02-22T00:05:40.897Z,77.23
2023-02-22T00:08:09.990Z,76.65
2023-02-22T00:10:38.419Z,78.22
2023-02-22T00:13:08.116Z,78.20
2023-02-22T00:15:35.700Z,77.53
2023-02-22T00:18:04.453Z,78.03
2023-02-22T00:20:32.755Z,78.20
2023-02-22T00:23:01.468Z,77.75
2023-02-22T00:25:28.378Z,77.00
2023-02-22T00:27:56.233Z,77.63
2023-02-22T00:30:26.748Z,77.40
2023-02-22T00:32:55.974Z,77.27
2023-02-22T00:35:25.251Z,77.13
2023-02-22T00:37:56.070Z,77.00
2023-02-22T00:40:25.362Z,76.93
2023-02-22T00:42:52.911Z,77.72
2023-02-22T00:45:21.697Z,76.65
2023-02-22T00:47:48.632Z,77.07
2023-02-22T00:50:16.424Z,77.13
2023-02-22T00:52:43.302Z,77.45
2023-02-22T00:55:17.793Z,76.90
2023-02-22T00:57:45.303Z,77.53
2023-02-22T01:00:17.898Z,76.50
2023-02-22T01:02:45.058Z,76.55
2023-02-22T01:05:14.821Z,76.28
2023-02-22T01:07:42.265Z,77.15
2023-02-22T01:10:12.029Z,77.97
2023-02-22T01:12:38.931Z,76.88
2023-02-22T01:15:10.433Z,78.00
2023-02-22T01:20:10.198Z,76.40
2023-02-22T01:22:37.541Z,77.97
2023-02-22T01:25:07.319Z,76.85
2023-02-22T01:27:36.104Z,79.32
2023-02-22T01:30:08.659Z,77.10
2023-02-22T01:32:36.444Z,77.30
2023-02-22T01:35:05.073Z,77.35
2023-02-22T01:37:32.460Z,77.57
2023-02-22T01:40:00.566Z,78.78
2023-02-22T01:42:29.273Z,76.80
2023-02-22T01:45:38.526Z,76.88
2023-02-22T01:48:09.458Z,77.32
2023-02-22T01:50:40.351Z,76.35
2023-02-22T01:53:09.260Z,78.03
2023-02-22T01:55:36.472Z,77.35
2023-02-22T01:58:05.064Z,77.15
2023-02-22T02:00:33.533Z,77.30
2023-02-22T02:03:04.674Z,77.00
2023-02-22T02:05:34.342Z,77.43
2023-02-22T02:08:08.892Z,77.65
2023-02-22T02:10:36.031Z,76.63
2023-02-22T02:13:04.013Z,78.03
2023-02-22T02:15:33.735Z,77.25
2023-02-22T02:18:05.041Z,77.32
2023-02-22T02:20:40.659Z,77.63
2023-02-22T02:23:24.651Z,78.43
2023-02-22T02:26:22.880Z,78.07
2023-02-22T02:29:25.610Z,76.50
2023-02-22T02:32:22.768Z,77.00
2023-02-22T02:34:53.795Z,77.78
2023-02-22T02:37:27.689Z,76.30
2023-02-22T02:39:59.260Z,77.55
2023-02-22T02:42:34.684Z,76.70
2023-02-22T02:45:10.017Z,77.35
2023-02-22T02:47:42.432Z,76.47
2023-02-22T02:50:11.668Z,78.97
2023-02-22T02:52:40.812Z,78.10
2023-02-22T02:55:11.308Z,76.68
2023-02-22T02:57:41.462Z,77.35
2023-02-22T03:00:22.648Z,77.38
2023-02-22T03:03:10.364Z,77.18
2023-02-22T03:05:59.541Z,76.85
2023-02-22T03:08:34.655Z,77.28
2023-02-22T03:11:15.123Z,76.85
2023-02-22T03:13:52.120Z,76.38
2023-02-22T03:16:29.725Z,77.43
2023-02-22T03:19:08.906Z,77.03
2023-02-22T03:21:47.996Z,76.93
2023-02-22T03:24:21.484Z,76.47
2023-02-22T03:26:54.018Z,76.28
2023-02-22T03:29:23.815Z,77.10
2023-02-22T03:31:53.652Z,75.60
2023-02-22T03:34:27.560Z,76.68
2023-02-22T03:36:59.143Z,75.90
2023-02-22T03:39:31.088Z,76.93
2023-02-22T03:42:06.902Z,77.53
2023-02-22T03:44:38.417Z,76.45
2023-02-22T03:47:09.561Z,76.55
2023-02-22T03:49:42.808Z,76.90
2023-02-22T03:52:10.234Z,76.25
2023-02-22T03:54:38.612Z,77.90
2023-02-22T03:57:09.964Z,76.60
2023-02-22T03:59:40.625Z,76.70
2023-02-22T04:02:07.561Z,76.55
2023-02-22T04:04:34.608Z,78.63
2023-02-22T04:07:03.538Z,78.68
2023-02-22T04:09:30.660Z,76.85
2023-02-22T04:11:57.663Z,77.40
2023-02-22T04:14:25.801Z,77.75
2023-02-22T04:16:54.229Z,77.65
2023-02-22T04:19:21.323Z,76.57
2023-02-22T04:21:50.637Z,76.53
2023-02-22T04:24:24.045Z,77.85
2023-02-22T04:26:51.142Z,76.85
2023-02-22T04:29:19.103Z,77.50
2023-02-22T04:31:46.011Z,76.38
2023-02-22T04:34:12.928Z,76.40
2023-02-22T04:36:42.393Z,76.90
2023-02-22T04:39:09.687Z,76.15
2023-02-22T04:41:37.939Z,77.15
2023-02-22T04:44:06.662Z,77.82
2023-02-22T04:46:34.322Z,76.30
2023-02-22T04:49:02.800Z,76.43
2023-02-22T04:51:32.270Z,76.35
2023-02-22T04:54:07.438Z,76.88
2023-02-22T04:56:38.260Z,77.05
2023-02-22T04:59:05.933Z,77.15
2023-02-22T05:01:33.727Z,75.95
2023-02-22T05:04:02.159Z,77.50
2023-02-22T05:06:29.116Z,77.10
2023-02-22T05:08:55.964Z,76.65
2023-02-22T05:11:22.903Z,76.72
2023-02-22T05:13:51.328Z,77.07
2023-02-22T05:16:18.366Z,76.45
2023-02-22T05:18:45.372Z,76.25
2023-02-22T05:21:13.596Z,76.68
2023-02-22T05:23:41.455Z,77.40
2023-02-22T05:26:10.019Z,77.25
2023-02-22T05:28:38.411Z,77.10
2023-02-22T05:31:07.541Z,75.65
2023-02-22T05:33:34.470Z,80.55
2023-02-22T05:36:01.358Z,76.95
2023-02-22T05:38:28.617Z,78.40
2023-02-22T05:40:56.936Z,76.07
2023-02-22T05:43:23.845Z,76.53
2023-02-22T05:45:50.725Z,76.88
2023-02-22T05:48:20.693Z,77.25
2023-02-22T05:50:49.951Z,76.65
2023-02-22T05:53:16.986Z,77.43
2023-02-22T05:55:46.203Z,75.72
2023-02-22T05:58:13.486Z,75.88
2023-02-22T06:00:40.461Z,76.57
2023-02-22T06:03:09.376Z,78.57
2023-02-22T06:05:37.894Z,76.70
2023-02-22T06:08:06.804Z,76.80
2023-02-22T06:10:33.909Z,76.75
2023-02-22T06:13:01.925Z,77.72
2023-02-22T06:15:29.658Z,77.65
2023-02-22T06:17:57.878Z,76.82
2023-02-22T06:20:27.302Z,77.20
2023-02-22T06:22:56.630Z,78.40
2023-02-22T06:25:25.208Z,77.05
2023-02-22T06:27:52.387Z,78.10
2023-02-22T06:30:21.612Z,77.97
2023-02-22T06:32:48.539Z,78.40
2023-02-22T06:35:16.121Z,79.38
2023-02-22T06:37:42.966Z,79.28
2023-02-22T06:40:12.488Z,78.22
2023-02-22T06:42:39.957Z,78.15
2023-02-22T06:45:07.614Z,78.55
2023-02-22T06:47:38.508Z,79.35
2023-02-22T06:50:05.789Z,78.93
2023-02-22T06:52:32.685Z,78.90
2023-02-22T06:54:59.489Z,78.85
2023-02-22T06:57:27.636Z,80.13
2023-02-22T06:59:54.485Z,79.35
2023-02-22T07:02:21.295Z,78.50
2023-02-22T07:04:48.154Z,80.75
2023-02-22T07:07:14.998Z,80.90
2023-02-22T07:09:42.187Z,78.63
2023-02-22T07:12:10.306Z,78.53
2023-02-22T07:14:38.506Z,82.07
2023-02-22T07:17:05.374Z,80.22
2023-02-22T07:19:32.146Z,82.45
2023-02-22T07:21:59.413Z,80.93
2023-02-22T07:24:28.381Z,81.85
2023-02-22T07:26:55.714Z,77.85
2023-02-22T07:29:22.633Z,80.93
2023-02-22T07:31:51.060Z,78.57
2023-02-22T07:34:18.013Z,78.40
2023-02-22T07:36:44.902Z,78.25
2023-02-22T07:39:11.820Z,78.70
2023-02-22T07:41:38.773Z,81.32
2023-02-22T07:44:14.561Z,78.65
2023-02-22T07:46:41.423Z,78.38
2023-02-22T07:49:09.613Z,79.28
2023-02-22T07:51:36.466Z,78.75
2023-02-22T07:54:03.344Z,80.15
2023-02-22T07:56:30.203Z,79.30
2023-02-22T07:58:57.096Z,79.68
2023-02-22T08:01:24.727Z,78.13
2023-02-22T08:03:52.648Z,78.43
2023-02-22T08:06:21.091Z,80.78
2023-02-22T08:08:47.941Z,80.82
2023-02-22T08:11:15.095Z,80.82
2023-02-22T08:13:42.090Z,81.85
2023-02-22T08:16:09.148Z,81.03
2023-02-22T08:18:38.271Z,81.32
2023-02-22T08:21:05.477Z,87.25
2023-02-22T08:23:34.497Z,82.10
2023-02-22T08:26:05.383Z,84.78
2023-02-22T08:28:32.374Z,78.72
2023-02-22T08:30:59.310Z,78.82
2023-02-22T08:33:26.301Z,80.93
2023-02-22T08:35:53.213Z,78.95
2023-02-22T08:38:22.510Z,79.65
2023-02-22T08:40:51.222Z,80.60
2023-02-22T08:43:18.497Z,80.50
2023-02-22T08:45:46.076Z,79.30
2023-02-22T08:48:14.065Z,80.13
2023-02-22T08:50:41.951Z,79.85
2023-02-22T08:53:10.623Z,78.72
2023-02-22T08:55:38.696Z,80.72
2023-02-22T08:58:10.289Z,78.88
2023-02-22T09:00:38.801Z,82.50
2023-02-22T09:03:07.345Z,78.55
2023-02-22T09:05:34.379Z,79.78
2023-02-22T09:08:01.698Z,79.50
2023-02-22T09:10:31.446Z,79.10
2023-02-22T09:13:00.609Z,80.10
2023-02-22T09:15:29.118Z,78.50
2023-02-22T09:17:56.306Z,78.60
2023-02-22T09:20:25.000Z,79.53
2023-02-22T09:22:52.746Z,79.25
2023-02-22T09:25:23.399Z,78.88
2023-02-22T09:27:51.234Z,80.13
2023-02-22T09:30:23.588Z,83.50
2023-02-22T09:32:54.070Z,80.32
2023-02-22T09:35:26.976Z,80.53
2023-02-22T09:37:55.222Z,79.30
2023-02-22T09:40:25.913Z,77.93
2023-02-22T09:43:02.474Z,81.43
2023-02-22T09:45:36.849Z,81.55
2023-02-22T09:48:21.294Z,79.63
2023-02-22T09:50:51.687Z,78.90
2023-02-22T09:53:31.618Z,79.25
2023-02-22T09:56:05.057Z,81.25
2023-02-22T09:58:34.481Z,79.20
2023-02-22T10:01:18.809Z,79.78
2023-02-22T10:03:55.539Z,79.88
2023-02-22T10:06:24.933Z,79.38
2023-02-22T10:08:56.488Z,78.10
2023-02-22T10:11:37.613Z,77.90
2023-02-22T10:14:20.098Z,78.88
2023-02-22T10:16:53.248Z,80.35
2023-02-22T10:19:31.603Z,78.28
2023-02-22T10:22:28.613Z,80.18
2023-02-22T10:25:00.709Z,79.03
2023-02-22T10:27:32.827Z,78.03
2023-02-22T10:30:12.806Z,79.25
2023-02-22T10:32:53.157Z,79.35
2023-02-22T10:35:25.697Z,80.57
2023-02-22T10:37:56.281Z,78.25
2023-02-22T10:40:32.204Z,79.35
2023-02-22T10:43:02.836Z,78.60
2023-02-22T10:45:35.958Z,78.95
2023-02-22T10:48:08.599Z,78.32
2023-02-22T10:50:39.829Z,78.85
2023-02-22T10:53:07.509Z,80.25
2023-02-22T10:55:34.585Z,79.25
2023-02-22T10:58:07.452Z,79.85
2023-02-22T11:00:37.448Z,79.50
2023-02-22T11:03:15.594Z,78.30
2023-02-22T11:05:44.128Z,80.07
2023-02-22T11:08:16.655Z,78.57
2023-02-22T11:10:44.005Z,79.20
2023-02-22T11:13:18.629Z,79.38
2023-02-22T11:15:45.672Z,78.15
2023-02-22T11:18:24.925Z,78.35
2023-02-22T11:21:02.373Z,80.03
2023-02-22T11:23:29.736Z,78.38
2023-02-22T11:26:07.536Z,78.47
2023-02-22T11:28:35.224Z,78.85
2023-02-22T11:31:14.501Z,81.22
2023-02-22T11:33:49.018Z,77.57
2023-02-22T11:36:31.264Z,78.53
2023-02-22T11:39:00.842Z,80.00
2023-02-22T11:41:34.975Z,78.07
2023-02-22T11:44:23.624Z,80.13
2023-02-22T11:46:52.044Z,79.55
2023-02-22T11:49:20.099Z,78.68
2023-02-22T11:52:06.709Z,79.00
2023-02-22T11:54:53.096Z,79.30
2023-02-22T11:57:38.470Z,77.40
2023-02-22T12:00:16.372Z,77.18
2023-02-22T12:03:13.010Z,80.25
2023-02-22T12:05:59.648Z,78.63
2023-02-22T12:08:37.723Z,77.65
2023-02-22T12:11:13.870Z,80.70
2023-02-22T12:13:59.321Z,79.32
2023-02-22T12:16:38.100Z,77.45
2023-02-22T12:19:15.003Z,79.07
2023-02-22T12:21:46.665Z,77.75
2023-02-22T12:24:19.369Z,77.28
2023-02-22T12:26:50.503Z,77.35
2023-02-22T12:29:26.798Z,79.43
2023-02-22T12:32:00.505Z,78.88
2023-02-22T12:34:35.903Z,78.03
2023-02-22T12:37:13.055Z,78.13
2023-02-22T12:39:53.562Z,77.43
2023-02-22T12:42:28.575Z,77.55
2023-02-22T12:45:01.060Z,78.72
2023-02-22T12:47:35.486Z,78.60
2023-02-22T12:50:11.719Z,78.20
2023-02-22T12:52:44.545Z,80.85
2023-02-22T12:55:16.830Z,78.72
2023-02-22T12:57:49.002Z,77.30
2023-02-22T13:00:23.134Z,80.65
2023-02-22T13:02:58.802Z,78.55
2023-02-22T13:05:26.173Z,78.07
2023-02-22T13:08:19.521Z,77.85
2023-02-22T13:11:10.936Z,78.63
2023-02-22T13:13:54.282Z,78.15
2023-02-22T13:16:32.893Z,79.70
2023-02-22T13:19:04.909Z,78.18
2023-02-22T13:21:41.113Z,78.75
2023-02-22T13:24:18.599Z,84.63
2023-02-22T13:26:51.411Z,80.32
2023-02-22T13:29:23.276Z,79.45
2023-02-22T13:32:04.492Z,78.65
2023-02-22T13:34:46.709Z,78.80
2023-02-22T13:37:36.004Z,81.10
2023-02-22T13:40:39.231Z,78.53
2023-02-22T13:43:25.140Z,79.25
2023-02-22T13:46:12.609Z,78.60
2023-02-22T13:49:03.132Z,78.80
2023-02-22T13:51:56.670Z,79.18
2023-02-22T13:54:31.278Z,78.22
2023-02-22T13:56:58.217Z,81.38
2023-02-22T13:59:30.121Z,78.63
2023-02-22T14:01:58.912Z,82.03
2023-02-22T14:04:38.256Z,78.32
2023-02-22T14:07:40.807Z,80.90
2023-02-22T14:10:46.629Z,77.85
2023-02-22T14:13:17.201Z,79.80
2023-02-22T14:16:22.909Z,78.53
2023-02-22T14:19:00.047Z,81.43
2023-02-22T14:21:26.962Z,78.93
2023-02-22T14:23:55.920Z,78.40
2023-02-22T14:26:26.867Z,80.28
2023-02-22T14:28:58.101Z,79.63
2023-02-22T14:31:35.931Z,79.53
2023-02-22T14:34:10.024Z,78.78
2023-02-22T14:36:44.699Z,79.07
2023-02-22T14:39:17.929Z,80.38
2023-02-22T14:41:51.621Z,79.38
2023-02-22T14:44:27.556Z,80.45
2023-02-22T14:46:56.940Z,80.53
2023-02-22T14:49:28.460Z,80.78
2023-02-22T14:51:59.535Z,81.78
2023-02-22T14:54:32.895Z,80.57
2023-02-22T14:57:14.812Z,79.57
2023-02-22T14:59:58.926Z,80.72
2023-02-22T15:02:26.166Z,79.03
2023-02-22T15:04:54.523Z,79.93
2023-02-22T15:07:27.440Z,80.25
2023-02-22T15:10:25.329Z,80.03
2023-02-22T15:12:59.056Z,81.32
2023-02-22T15:15:27.602Z,82.07
2023-02-22T15:17:56.531Z,80.93
2023-02-22T15:20:25.707Z,82.45
2023-02-22T15:22:59.459Z,81.35
2023-02-22T15:25:28.793Z,79.80
2023-02-22T15:28:01.693Z,79.32
2023-02-22T15:30:32.982Z,79.97
2023-02-22T15:35:42.432Z,82.95
2023-02-22T15:38:20.200Z,82.30
2023-02-22T15:40:50.747Z,80.65
2023-02-22T15:43:24.170Z,80.70
2023-02-22T15:45:52.736Z,80.95
2023-02-22T15:48:19.870Z,80.00
2023-02-22T15:51:10.561Z,80.40
2023-02-22T15:53:43.120Z,81.13
2023-02-22T15:56:14.592Z,80.85
2023-02-22T15:58:43.297Z,79.57
2023-02-22T16:01:18.766Z,80.00
2023-02-22T16:03:48.966Z,81.22
2023-02-22T16:06:28.625Z,80.90
2023-02-22T16:08:58.790Z,81.10
2023-02-22T16:11:30.594Z,82.00
2023-02-22T16:14:01.153Z,80.28
2023-02-22T16:16:32.307Z,81.43
2023-02-22T16:19:37.701Z,81.15
2023-02-22T16:22:13.576Z,80.15
2023-02-22T16:24:41.010Z,80.82
2023-02-22T16:27:18.837Z,82.85
2023-02-22T16:30:02.435Z,82.45
2023-02-22T16:32:31.492Z,80.63
2023-02-22T16:34:58.341Z,81.50
2023-02-22T16:37:25.364Z,80.40
2023-02-22T16:39:52.208Z,80.72
2023-02-22T16:42:24.082Z,79.65
2023-02-22T16:44:52.527Z,84.13
2023-02-22T16:47:19.565Z,80.43
2023-02-22T16:49:52.871Z,80.82
2023-02-22T16:52:20.658Z,79.38
2023-02-22T16:54:48.126Z,80.82
2023-02-22T16:57:20.837Z,79.55
2023-02-22T16:59:52.040Z,78.55
2023-02-22T17:02:19.978Z,80.18
2023-02-22T17:04:49.911Z,79.03
2023-02-22T17:07:20.604Z,79.07
2023-02-22T17:09:47.485Z,80.75
2023-02-22T17:12:14.351Z,79.70
2023-02-22T17:14:45.804Z,79.75
2023-02-22T17:17:13.476Z,80.53
2023-02-22T17:19:40.264Z,80.63
2023-02-22T17:22:09.435Z,79.18
2023-02-22T17:24:39.231Z,80.05
2023-02-22T17:27:06.104Z,80.70
2023-02-22T17:29:32.926Z,83.40
2023-02-22T17:32:00.131Z,80.50
2023-02-22T17:34:28.073Z,79.57
2023-02-22T17:36:55.011Z,81.50
2023-02-22T17:39:21.970Z,79.63
2023-02-22T17:41:57.028Z,79.57
2023-02-22T17:44:24.582Z,81.10
2023-02-22T17:46:52.936Z,79.55
2023-02-22T17:49:19.996Z,80.45
2023-02-22T17:51:49.896Z,79.53
2023-02-22T17:54:17.537Z,79.38
2023-02-22T17:56:44.705Z,79.35
2023-02-22T17:59:12.924Z,79.15
2023-02-22T18:01:40.019Z,79.65
2023-02-22T18:04:06.877Z,79.63
2023-02-22T18:06:33.831Z,79.32
2023-02-22T18:09:01.716Z,80.03
2023-02-22T18:11:32.504Z,80.00
2023-02-22T18:13:59.732Z,80.45
2023-02-22T18:16:28.196Z,80.72
2023-02-22T18:18:55.808Z,80.00
2023-02-22T18:21:23.451Z,80.38
2023-02-22T18:23:50.400Z,79.80
2023-02-22T18:26:19.427Z,79.57
2023-02-22T18:28:48.746Z,79.90
2023-02-22T18:31:17.793Z,79.10
2023-02-22T18:33:48.587Z,80.78
2023-02-22T18:36:16.409Z,80.18
2023-02-22T18:38:44.558Z,80.20
2023-02-22T18:41:13.216Z,79.30
2023-02-22T18:43:40.804Z,81.57
2023-02-22T18:46:09.448Z,78.47
2023-02-22T18:48:36.673Z,84.53
2023-02-22T18:51:07.298Z,80.82
2023-02-22T18:53:34.154Z,79.57
2023-02-22T18:56:03.840Z,78.50
2023-02-22T18:58:32.829Z,79.70
2023-02-22T19:01:00.184Z,83.65
2023-02-22T19:03:27.707Z,79.45
2023-02-22T19:05:56.104Z,79.18
2023-02-22T19:08:24.308Z,81.35
2023-02-22T19:10:51.225Z,78.93
2023-02-22T19:13:18.963Z,79.43
2023-02-22T19:15:45.803Z,79.75
2023-02-22T19:18:13.069Z,78.90
2023-02-22T19:23:10.456Z,81.35
2023-02-22T19:25:42.588Z,78.75
2023-02-22T19:28:09.636Z,78.82
2023-02-22T19:30:36.490Z,78.72
2023-02-22T19:33:04.894Z,79.30
2023-02-22T19:35:31.831Z,78.55
2023-02-22T19:37:58.822Z,79.75
2023-02-22T19:40:26.585Z,78.93
2023-02-22T19:42:57.819Z,79.63
2023-02-22T19:45:25.090Z,79.05
2023-02-22T19:47:54.600Z,79.05
2023-02-22T19:50:22.013Z,79.13
2023-02-22T19:52:48.859Z,79.88
2023-02-22T19:55:15.918Z,80.00
2023-02-22T19:57:46.433Z,80.55
2023-02-22T20:00:24.097Z,78.75
2023-02-22T20:03:05.593Z,79.05
2023-02-22T20:05:33.436Z,78.80
2023-02-22T20:08:00.335Z,79.22
2023-02-22T20:10:27.349Z,78.03
2023-02-22T20:12:54.177Z,79.95
2023-02-22T20:15:23.997Z,79.20
2023-02-22T20:17:51.288Z,79.55
2023-02-22T20:20:18.751Z,79.53
2023-02-22T20:22:45.746Z,79.80
2023-02-22T20:25:13.617Z,79.20
2023-02-22T20:27:40.860Z,78.57
2023-02-22T20:30:10.463Z,79.13
2023-02-22T20:32:39.666Z,78.20
2023-02-22T20:35:07.686Z,79.05
2023-02-22T20:37:35.544Z,78.32
2023-02-22T20:40:04.179Z,78.60
2023-02-22T20:42:31.979Z,79.35
2023-02-22T20:45:01.888Z,77.97
2023-02-22T20:47:28.774Z,77.93
2023-02-22T20:49:57.004Z,78.72
2023-02-22T20:52:23.844Z,79.00
2023-02-22T20:54:50.731Z,78.47
2023-02-22T20:57:17.632Z,78.60
2023-02-22T20:59:45.930Z,78.40
2023-02-22T21:02:12.838Z,79.90
2023-02-22T21:04:40.024Z,78.80
2023-02-22T21:07:08.310Z,77.65
2023-02-22T21:09:35.195Z,78.35
2023-02-22T21:12:02.077Z,78.00
2023-02-22T21:14:30.920Z,78.30
2023-02-22T21:16:57.749Z,78.00
2023-02-22T21:19:27.320Z,78.93
2023-02-22T21:21:55.655Z,78.78
2023-02-22T21:24:25.666Z,78.85
2023-02-22T21:26:52.607Z,78.32
2023-02-22T21:29:19.579Z,79.03
2023-02-22T21:31:46.603Z,78.00
2023-02-22T21:34:17.471Z,77.55
2023-02-22T21:36:45.170Z,77.70
2023-02-22T21:39:18.116Z,80.32
2023-02-22T21:41:48.082Z,77.47
2023-02-22T21:44:15.541Z,78.05
2023-02-22T21:46:43.072Z,77.50
2023-02-22T21:49:11.323Z,78.50
2023-02-22T21:51:38.432Z,79.03
2023-02-22T21:54:08.313Z,77.28
2023-02-22T21:56:36.833Z,77.35
2023-02-22T21:59:06.572Z,77.70
2023-02-22T22:01:35.789Z,77.47
2023-02-22T22:04:04.068Z,77.68
2023-02-22T22:06:33.205Z,77.68
2023-02-22T22:09:00.963Z,77.28
2023-02-22T22:11:30.608Z,77.80
2023-02-22T22:13:58.817Z,76.97
2023-02-22T22:16:29.798Z,77.30
2023-02-22T22:18:57.319Z,77.95
2023-02-22T22:21:24.652Z,77.15
2023-02-22T22:23:56.016Z,77.07
2023-02-22T22:26:24.655Z,78.15
2023-02-22T22:28:53.534Z,76.57
2023-02-22T22:31:23.728Z,77.53
2023-02-22T22:33:53.369Z,76.27
2023-02-22T22:36:21.646Z,77.43
2023-02-22T22:38:48.598Z,77.57
2023-02-22T22:41:18.895Z,76.85
2023-02-22T22:43:46.918Z,77.90
2023-02-22T22:46:16.224Z,78.07
2023-02-22T22:48:47.039Z,77.82
2023-02-22T22:51:19.749Z,76.82
2023-02-22T22:53:48.866Z,77.20
2023-02-22T22:56:17.815Z,77.15
2023-02-22T22:58:48.616Z,77.75
2023-02-22T23:01:19.739Z,77.57
2023-02-22T23:03:53.949Z,77.13
2023-02-22T23:06:24.947Z,76.68
2023-02-22T23:09:00.040Z,76.78
2023-02-22T23:11:28.700Z,76.65
2023-02-22T23:13:56.430Z,76.75
2023-02-22T23:16:24.165Z,77.15
2023-02-22T23:18:51.496Z,76.63
2023-02-22T23:21:19.789Z,76.80
2023-02-22T23:23:51.620Z,76.53
2023-02-22T23:26:18.565Z,77.03
2023-02-22T23:28:47.687Z,77.03
2023-02-22T23:31:16.914Z,76.60
2023-02-22T23:33:45.438Z,76.50
2023-02-22T23:36:12.490Z,76.80
2023-02-22T23:38:40.043Z,77.65
2023-02-22T23:41:10.592Z,77.18
2023-02-22T23:43:40.570Z,76.97
2023-02-22T23:46:10.814Z,77.07
2023-02-22T23:48:39.544Z,78.05
2023-02-22T23:51:09.155Z,75.93
2023-02-22T23:53:38.437Z,76.85
2023-02-22T23:56:10.101Z,76.25
2023-02-22T23:58:38.298Z,76.78
